createdAt,value
2023-03-03T00:00:08.811Z,25.67
2023-03-03T00:02:35.721Z,70.75
2023-03-03T00:05:02.698Z,61.50
2023-03-03T00:07:29.763Z,67.25
2023-03-03T00:09:56.874Z,72.75
2023-03-03T00:12:29.516Z,74.25
2023-03-03T00:14:56.838Z,59.75
2023-03-03T00:17:33.043Z,67.00
2023-03-03T00:20:00.031Z,75.00
2023-03-03T00:22:37.422Z,79.75
2023-03-03T00:25:19.979Z,74.50
2023-03-03T00:27:47.238Z,75.00
2023-03-03T00:30:27.773Z,70.00
2023-03-03T00:32:56.105Z,67.00
2023-03-03T00:35:35.661Z,70.00
2023-03-03T00:38:13.044Z,68.75
2023-03-03T00:40:41.248Z,73.75
2023-03-03T00:43:26.117Z,73.75
2023-03-03T00:45:55.230Z,62.25
2023-03-03T00:48:29.357Z,59.50
2023-03-03T00:50:58.949Z,65.50
2023-03-03T00:53:28.290Z,75.50
2023-03-03T00:55:55.848Z,71.50
2023-03-03T00:58:24.419Z,70.75
2023-03-03T01:00:56.901Z,63.25
2023-03-03T01:03:26.769Z,57.50
2023-03-03T01:05:54.898Z,57.50
2023-03-03T01:08:22.602Z,67.00
2023-03-03T01:10:58.845Z,63.00
2023-03-03T01:13:31.658Z,72.00
2023-03-03T01:16:00.234Z,63.25
2023-03-03T01:18:28.095Z,60.00
2023-03-03T01:20:55.043Z,61.00
2023-03-03T01:23:22.296Z,67.50
2023-03-03T01:25:49.682Z,64.75
2023-03-03T01:28:16.599Z,55.00
2023-03-03T01:30:43.775Z,53.00
2023-03-03T01:33:10.727Z,70.75
2023-03-03T01:35:38.079Z,66.75
2023-03-03T01:38:05.046Z,66.75
2023-03-03T01:40:32.162Z,55.75
2023-03-03T01:43:01.977Z,44.75
2023-03-03T01:45:43.697Z,60.75
2023-03-03T01:48:23.580Z,64.00
2023-03-03T01:50:54.752Z,57.75
2023-03-03T01:53:38.665Z,68.25
2023-03-03T01:56:08.988Z,53.25
2023-03-03T01:58:40.790Z,49.00
2023-03-03T02:01:20.678Z,54.50
2023-03-03T02:03:48.772Z,65.00
2023-03-03T02:06:19.529Z,70.50
2023-03-03T02:09:29.940Z,65.50
2023-03-03T02:12:16.406Z,54.00
2023-03-03T02:14:51.329Z,43.50
2023-03-03T02:17:52.689Z,41.00
2023-03-03T02:20:46.351Z,18.33
2023-03-03T02:23:36.432Z,24.67
2023-03-03T02:26:07.760Z,13.67
2023-03-03T02:28:37.067Z,56.25
2023-03-03T02:31:07.651Z,55.75
2023-03-03T02:33:34.592Z,64.00
2023-03-03T02:36:01.564Z,66.25
2023-03-03T02:38:36.772Z,63.00
2023-03-03T02:41:28.264Z,59.00
2023-03-03T02:44:02.738Z,43.25
2023-03-03T02:46:34.633Z,46.00
2023-03-03T02:49:01.953Z,58.25
2023-03-03T02:51:28.877Z,52.25
2023-03-03T02:53:55.851Z,43.25
2023-03-03T02:56:23.339Z,37.50
2023-03-03T02:58:50.612Z,35.00
2023-03-03T03:01:18.033Z,26.33
2023-03-03T03:03:45.160Z,22.67
2023-03-03T03:06:12.154Z,23.33
2023-03-03T03:08:39.206Z,15.33
2023-03-03T03:11:06.374Z,16.67
2023-03-03T03:13:33.914Z,13.67
2023-03-03T03:16:01.281Z,16.67
2023-03-03T03:18:28.567Z,26.33
2023-03-03T03:20:55.556Z,19.00
2023-03-03T03:23:22.533Z,16.67
2023-03-03T03:25:49.758Z,12.67
2023-03-03T03:28:17.912Z,31.50
2023-03-03T03:30:45.962Z,41.75
2023-03-03T03:33:13.285Z,32.00
2023-03-03T03:35:45.782Z,27.00
2023-03-03T03:38:13.494Z,56.25
2023-03-03T03:40:40.808Z,56.75
2023-03-03T03:43:08.006Z,67.75
2023-03-03T03:45:34.955Z,72.00
2023-03-03T03:48:01.992Z,63.25
2023-03-03T03:50:29.115Z,68.50
2023-03-03T03:52:56.039Z,54.75
2023-03-03T03:55:23.213Z,49.25
2023-03-03T03:57:50.281Z,36.00
2023-03-03T04:00:17.442Z,35.25
2023-03-03T04:02:44.441Z,58.00
2023-03-03T04:05:11.459Z,56.75
2023-03-03T04:07:38.366Z,54.00
2023-03-03T04:10:06.012Z,54.25
2023-03-03T04:12:38.669Z,49.50
2023-03-03T04:15:10.986Z,33.25
2023-03-03T04:17:38.017Z,33.00
2023-03-03T04:20:06.241Z,57.25
2023-03-03T04:22:34.224Z,67.00
2023-03-03T04:25:05.470Z,60.25
2023-03-03T04:27:33.907Z,52.00
2023-03-03T04:30:02.019Z,47.75
2023-03-03T04:32:29.324Z,43.25
2023-03-03T04:35:07.275Z,42.50
2023-03-03T04:37:36.660Z,27.00
2023-03-03T04:40:08.249Z,57.50
2023-03-03T04:42:35.776Z,53.00
2023-03-03T04:45:03.243Z,25.50
2023-03-03T04:47:30.242Z,50.00
2023-03-03T04:49:57.169Z,41.50
2023-03-03T04:52:24.234Z,61.00
2023-03-03T04:54:51.129Z,62.50
2023-03-03T04:57:18.087Z,49.50
2023-03-03T04:59:45.189Z,44.00
2023-03-03T05:02:13.285Z,71.50
2023-03-03T05:04:40.272Z,64.50
2023-03-03T05:07:07.208Z,62.25
2023-03-03T05:09:34.420Z,54.50
2023-03-03T05:12:01.353Z,53.50
2023-03-03T05:14:28.435Z,71.75
2023-03-03T05:16:55.408Z,63.50
2023-03-03T05:19:22.408Z,62.50
2023-03-03T05:21:49.450Z,82.25
2023-03-03T05:24:16.494Z,91.50
2023-03-03T05:26:43.365Z,86.75
2023-03-03T05:29:10.429Z,77.50
2023-03-03T05:31:37.423Z,77.50
2023-03-03T05:34:04.418Z,69.00
2023-03-03T05:36:31.462Z,57.00
2023-03-03T05:38:58.720Z,71.50
2023-03-03T05:41:25.759Z,65.75
2023-03-03T05:43:52.820Z,64.00
2023-03-03T05:49:00.460Z,50.00
2023-03-03T05:51:27.375Z,54.00
2023-03-03T05:53:56.370Z,45.75
2023-03-03T05:56:23.666Z,43.25
2023-03-03T05:58:50.568Z,46.50
2023-03-03T06:01:17.595Z,64.00
2023-03-03T06:03:44.570Z,70.50
2023-03-03T06:06:12.594Z,73.25
2023-03-03T06:08:39.557Z,68.00
2023-03-03T06:11:06.464Z,60.50
2023-03-03T06:13:33.379Z,69.00
2023-03-03T06:16:00.387Z,65.25
2023-03-03T06:18:27.367Z,58.75
2023-03-03T06:20:55.350Z,62.00
2023-03-03T06:23:22.994Z,51.75
2023-03-03T06:25:50.103Z,52.25
2023-03-03T06:28:17.220Z,44.00
2023-03-03T06:30:44.228Z,45.00
2023-03-03T06:33:11.273Z,46.00
2023-03-03T06:35:38.247Z,71.00
2023-03-03T06:38:05.241Z,78.00
2023-03-03T06:40:32.202Z,69.00
2023-03-03T06:42:59.124Z,62.75
2023-03-03T06:45:26.099Z,65.25
2023-03-03T06:47:53.002Z,83.75
2023-03-03T06:50:21.238Z,77.75
2023-03-03T06:52:48.371Z,85.25
2023-03-03T06:55:23.677Z,82.25
2023-03-03T06:57:50.605Z,72.50
2023-03-03T07:00:30.701Z,76.75
2023-03-03T07:03:06.282Z,80.25
2023-03-03T07:05:34.635Z,80.75
2023-03-03T07:08:01.566Z,72.00
2023-03-03T07:10:31.289Z,96.00
2023-03-03T07:13:17.215Z,94.50
2023-03-03T07:15:44.223Z,104.50
2023-03-03T07:18:35.435Z,77.75
2023-03-03T07:21:36.880Z,64.25
2023-03-03T07:24:28.121Z,57.25
2023-03-03T07:27:21.870Z,53.50
2023-03-03T07:29:51.753Z,46.75
2023-03-03T07:32:34.579Z,92.00
2023-03-03T07:35:03.004Z,108.50
2023-03-03T07:37:39.041Z,107.25
2023-03-03T07:40:34.999Z,102.00
2023-03-03T07:43:17.364Z,96.25
2023-03-03T07:45:44.359Z,81.25
2023-03-03T07:48:14.055Z,74.25
2023-03-03T07:50:41.650Z,75.75
2023-03-03T07:53:36.631Z,73.75
2023-03-03T07:56:12.793Z,83.25
2023-03-03T07:58:42.318Z,79.00
2023-03-03T08:01:31.971Z,78.50
2023-03-03T08:03:58.961Z,98.25
2023-03-03T08:06:36.289Z,87.50
2023-03-03T08:09:29.970Z,90.25
2023-03-03T08:12:02.609Z,92.75
2023-03-03T08:14:36.823Z,97.50
2023-03-03T08:17:15.392Z,93.50
2023-03-03T08:19:42.359Z,93.50
2023-03-03T08:22:21.482Z,92.75
2023-03-03T08:24:48.454Z,92.50
2023-03-03T08:27:15.420Z,88.50
2023-03-03T08:29:42.291Z,68.25
2023-03-03T08:32:09.283Z,77.50
2023-03-03T08:34:36.231Z,72.00
2023-03-03T08:37:03.239Z,74.50
2023-03-03T08:39:30.117Z,72.00
2023-03-03T08:41:56.999Z,69.50
2023-03-03T08:44:24.412Z,68.25
2023-03-03T08:46:51.448Z,73.25
2023-03-03T08:49:18.617Z,71.50
2023-03-03T08:51:45.700Z,67.00
2023-03-03T08:54:12.589Z,71.75
2023-03-03T08:56:39.571Z,65.25
2023-03-03T08:59:06.447Z,71.75
2023-03-03T09:01:33.548Z,61.50
2023-03-03T09:04:00.918Z,60.00
2023-03-03T09:06:27.948Z,65.00
2023-03-03T09:08:55.249Z,50.25
2023-03-03T09:11:28.010Z,62.50
2023-03-03T09:14:29.035Z,56.75
2023-03-03T09:16:57.416Z,65.00
2023-03-03T09:19:32.628Z,62.50
2023-03-03T09:22:12.015Z,61.50
2023-03-03T09:24:38.929Z,63.00
2023-03-03T09:27:20.025Z,63.75
2023-03-03T09:29:46.945Z,59.00
2023-03-03T09:32:34.671Z,51.00
2023-03-03T09:35:27.568Z,58.50
2023-03-03T09:37:54.673Z,55.25
2023-03-03T09:40:45.995Z,57.50
2023-03-03T09:43:17.282Z,59.25
2023-03-03T09:45:57.754Z,54.50
2023-03-03T09:48:47.398Z,48.00
2023-03-03T09:51:54.129Z,49.75
2023-03-03T09:54:32.530Z,51.75
2023-03-03T09:57:09.041Z,56.50
2023-03-03T09:59:51.005Z,54.25
2023-03-03T10:02:45.840Z,52.25
2023-03-03T10:05:33.026Z,54.00
2023-03-03T10:08:13.112Z,48.50
2023-03-03T10:10:51.411Z,48.25
2023-03-03T10:13:52.259Z,50.00
2023-03-03T10:16:27.914Z,44.75
2023-03-03T10:19:02.736Z,48.25
2023-03-03T10:21:48.697Z,47.50
2023-03-03T10:24:30.934Z,45.67
2023-03-03T10:27:54.938Z,46.33
2023-03-03T10:30:42.657Z,48.75
2023-03-03T10:33:34.848Z,45.00
2023-03-03T10:36:11.051Z,44.67
2023-03-03T10:39:03.480Z,45.50
2023-03-03T10:41:42.378Z,43.67
2023-03-03T10:44:32.908Z,40.00
2023-03-03T10:47:18.336Z,39.67
2023-03-03T10:50:16.256Z,42.33
2023-03-03T10:53:15.458Z,43.33
2023-03-03T10:55:53.463Z,40.33
2023-03-03T10:58:58.841Z,44.67
2023-03-03T11:01:48.692Z,49.00
2023-03-03T11:04:46.020Z,45.67
2023-03-03T11:07:26.695Z,39.67
2023-03-03T11:10:18.450Z,42.67
2023-03-03T11:12:57.637Z,38.67
2023-03-03T11:15:36.878Z,40.00
2023-03-03T11:18:25.258Z,45.00
2023-03-03T11:21:07.737Z,46.33
2023-03-03T11:23:52.600Z,46.00
2023-03-03T11:26:40.974Z,48.67
2023-03-03T11:29:31.608Z,44.67
2023-03-03T11:32:24.548Z,40.33
2023-03-03T11:35:23.872Z,44.33
2023-03-03T11:38:14.804Z,34.67
2023-03-03T11:41:07.386Z,29.67
2023-03-03T11:43:50.092Z,31.67
2023-03-03T11:46:22.757Z,33.67
2023-03-03T11:48:52.440Z,31.67
2023-03-03T11:51:41.626Z,40.67
2023-03-03T11:54:24.508Z,36.33
2023-03-03T11:56:57.669Z,25.00
2023-03-03T11:59:55.188Z,22.33
2023-03-03T12:02:28.021Z,24.00
2023-03-03T12:05:21.760Z,42.00
2023-03-03T12:08:08.061Z,32.67
2023-03-03T12:10:58.413Z,24.33
2023-03-03T12:13:50.967Z,41.67
2023-03-03T12:16:43.988Z,31.67
2023-03-03T12:19:16.710Z,25.67
2023-03-03T12:21:49.679Z,23.00
2023-03-03T12:24:54.557Z,20.00
2023-03-03T12:27:36.656Z,43.67
2023-03-03T12:30:40.817Z,39.33
2023-03-03T12:33:39.692Z,41.00
2023-03-03T12:36:27.855Z,41.67
2023-03-03T12:39:07.011Z,44.67
2023-03-03T12:41:45.909Z,38.33
2023-03-03T12:44:26.464Z,42.67
2023-03-03T12:47:23.956Z,32.67
2023-03-03T12:50:23.669Z,37.00
2023-03-03T12:53:02.767Z,34.00
2023-03-03T12:55:52.925Z,24.00
2023-03-03T12:58:20.666Z,13.00
2023-03-03T13:01:13.869Z,34.67
2023-03-03T13:03:55.006Z,31.33
2023-03-03T13:06:34.535Z,43.00
2023-03-03T13:09:27.185Z,40.67
2023-03-03T13:12:16.622Z,32.67
2023-03-03T13:15:02.832Z,34.33
2023-03-03T13:17:40.227Z,33.33
2023-03-03T13:20:35.061Z,40.33
2023-03-03T13:23:22.239Z,30.67
2023-03-03T13:26:00.998Z,26.67
2023-03-03T13:28:50.630Z,21.00
2023-03-03T13:31:22.257Z,17.00
2023-03-03T13:33:58.344Z,21.67
2023-03-03T13:36:41.732Z,51.00
2023-03-03T13:39:23.569Z,45.67
2023-03-03T13:42:01.843Z,52.33
2023-03-03T13:44:40.736Z,53.00
2023-03-03T13:47:14.839Z,37.67
2023-03-03T13:49:55.548Z,46.00
2023-03-03T13:52:25.651Z,41.67
2023-03-03T13:55:00.327Z,39.00
2023-03-03T13:57:30.113Z,30.33
2023-03-03T14:00:02.689Z,35.00
2023-03-03T14:02:48.295Z,43.00
2023-03-03T14:05:37.770Z,47.00
2023-03-03T14:08:25.748Z,40.33
2023-03-03T14:11:07.645Z,26.00
2023-03-03T14:13:49.681Z,33.67
2023-03-03T14:16:23.502Z,39.67
2023-03-03T14:19:04.026Z,48.00
2023-03-03T14:21:40.777Z,43.67
2023-03-03T14:24:17.602Z,44.67
2023-03-03T14:26:59.495Z,34.33
2023-03-03T14:29:26.306Z,49.67
2023-03-03T14:31:54.667Z,56.00
2023-03-03T14:34:24.619Z,53.00
2023-03-03T14:36:57.802Z,51.33
2023-03-03T14:39:40.302Z,53.33
2023-03-03T14:42:31.763Z,49.33
2023-03-03T14:45:01.438Z,54.67
2023-03-03T14:47:30.094Z,47.00
2023-03-03T14:50:03.189Z,48.00
2023-03-03T14:52:33.647Z,47.67
2023-03-03T14:55:05.470Z,47.67
2023-03-03T14:57:34.729Z,45.00
2023-03-03T15:00:27.910Z,44.33
2023-03-03T15:03:16.239Z,44.00
2023-03-03T15:05:51.410Z,46.33
2023-03-03T15:08:31.242Z,40.33
2023-03-03T15:11:14.514Z,46.33
2023-03-03T15:13:41.543Z,40.67
2023-03-03T15:16:16.925Z,44.00
2023-03-03T15:19:14.824Z,48.67
2023-03-03T15:21:55.545Z,46.00
2023-03-03T15:24:39.605Z,44.67
2023-03-03T15:27:21.406Z,50.33
2023-03-03T15:30:02.275Z,43.67
2023-03-03T15:32:51.984Z,41.00
2023-03-03T15:35:35.001Z,33.67
2023-03-03T15:38:25.300Z,45.00
2023-03-03T15:41:06.967Z,43.00
2023-03-03T15:43:39.329Z,48.67
2023-03-03T15:46:33.835Z,47.33
2023-03-03T15:49:22.131Z,51.33
2023-03-03T15:52:21.610Z,47.00
2023-03-03T15:54:51.247Z,30.00
2023-03-03T15:57:50.763Z,43.33
2023-03-03T16:00:29.474Z,44.00
2023-03-03T16:03:02.599Z,49.00
2023-03-03T16:05:39.888Z,48.33
2023-03-03T16:08:19.292Z,44.00
2023-03-03T16:11:09.561Z,54.67
2023-03-03T16:13:59.921Z,50.00
2023-03-03T16:16:41.826Z,41.00
2023-03-03T16:19:45.384Z,53.75
2023-03-03T16:22:49.392Z,54.50
2023-03-03T16:25:37.956Z,48.67
2023-03-03T16:28:07.610Z,54.00
2023-03-03T16:30:53.401Z,51.33
2023-03-03T16:33:20.272Z,46.00
2023-03-03T16:36:02.723Z,52.00
2023-03-03T16:38:44.331Z,48.67
2023-03-03T16:41:23.452Z,45.67
2023-03-03T16:44:16.401Z,44.33
2023-03-03T16:46:50.000Z,44.00
2023-03-03T16:49:32.091Z,43.00
2023-03-03T16:52:07.753Z,46.33
2023-03-03T16:54:40.739Z,32.67
2023-03-03T16:57:46.153Z,36.33
2023-03-03T17:00:21.691Z,45.00
2023-03-03T17:03:13.446Z,36.67
2023-03-03T17:05:45.492Z,27.33
2023-03-03T17:08:27.138Z,33.67
2023-03-03T17:11:02.803Z,26.67
2023-03-03T17:13:43.785Z,23.67
2023-03-03T17:16:49.820Z,42.00
2023-03-03T17:19:28.902Z,33.67
2023-03-03T17:22:12.371Z,28.00
2023-03-03T17:24:57.860Z,19.33
2023-03-03T17:27:46.702Z,19.33
2023-03-03T17:30:31.658Z,24.00
2023-03-03T17:33:37.080Z,26.67
2023-03-03T17:36:38.237Z,21.33
2023-03-03T17:39:42.858Z,23.67
2023-03-03T17:42:43.035Z,16.33
2023-03-03T17:45:15.590Z,21.33
2023-03-03T17:47:54.552Z,27.33
2023-03-03T17:50:30.530Z,26.00
2023-03-03T17:52:57.448Z,37.00
2023-03-03T17:55:30.371Z,39.33
2023-03-03T17:58:43.069Z,29.67
2023-03-03T18:02:01.614Z,44.67
2023-03-03T18:04:46.403Z,35.00
2023-03-03T18:07:34.172Z,39.67
2023-03-03T18:10:28.329Z,33.00
2023-03-03T18:13:13.156Z,34.67
2023-03-03T18:16:19.330Z,33.67
2023-03-03T18:19:23.945Z,39.67
2023-03-03T18:22:13.095Z,41.33
2023-03-03T18:25:09.406Z,35.00
2023-03-03T18:27:43.273Z,51.67
2023-03-03T18:30:20.682Z,43.00
2023-03-03T18:33:02.428Z,43.67
2023-03-03T18:35:46.471Z,48.33
2023-03-03T18:38:16.384Z,50.33
2023-03-03T18:41:12.610Z,52.33
2023-03-03T18:43:45.668Z,40.33
2023-03-03T18:46:23.101Z,40.67
2023-03-03T18:48:50.032Z,29.67
2023-03-03T18:51:37.467Z,34.33
2023-03-03T18:54:13.867Z,27.00
2023-03-03T18:57:03.921Z,19.67
2023-03-03T18:59:30.793Z,26.67
2023-03-03T19:02:21.092Z,21.33
2023-03-03T19:05:11.569Z,19.67
2023-03-03T19:07:41.605Z,27.00
2023-03-03T19:10:20.502Z,24.00
2023-03-03T19:12:54.550Z,30.00
2023-03-03T19:15:30.473Z,26.33
2023-03-03T19:18:06.135Z,36.00
2023-03-03T19:20:55.431Z,28.67
2023-03-03T19:23:35.554Z,33.33
2023-03-03T19:26:30.523Z,35.00
2023-03-03T19:29:12.669Z,44.67
2023-03-03T19:32:17.140Z,47.67
2023-03-03T19:35:27.410Z,46.00
2023-03-03T19:38:32.533Z,48.00
2023-03-03T19:41:10.123Z,48.00
2023-03-03T19:44:10.348Z,39.67
2023-03-03T19:46:56.138Z,28.67
2023-03-03T19:49:38.475Z,31.67
2023-03-03T19:52:39.292Z,45.33
2023-03-03T19:55:24.272Z,34.00
2023-03-03T19:58:14.390Z,32.33
2023-03-03T20:00:48.105Z,32.33
2023-03-03T20:03:34.232Z,35.33
2023-03-03T20:06:23.561Z,42.67
2023-03-03T20:09:03.952Z,42.33
2023-03-03T20:11:48.272Z,32.33
2023-03-03T20:14:36.791Z,41.67
2023-03-03T20:17:22.457Z,42.00
2023-03-03T20:19:57.285Z,41.67
2023-03-03T20:23:17.097Z,32.00
2023-03-03T20:25:49.061Z,29.67
2023-03-03T20:28:43.879Z,27.67
2023-03-03T20:31:19.637Z,26.67
2023-03-03T20:33:55.210Z,39.67
2023-03-03T20:36:39.974Z,32.33
2023-03-03T20:39:20.815Z,30.67
2023-03-03T20:42:15.012Z,41.00
2023-03-03T20:44:59.239Z,25.00
2023-03-03T20:48:02.950Z,21.67
2023-03-03T20:50:48.753Z,39.33
2023-03-03T20:53:52.618Z,45.00
2023-03-03T20:56:31.210Z,37.67
2023-03-03T20:59:17.741Z,42.67
2023-03-03T21:02:10.473Z,38.33
2023-03-03T21:04:38.578Z,39.00
2023-03-03T21:07:06.648Z,35.33
2023-03-03T21:09:39.958Z,39.33
2023-03-03T21:12:29.215Z,40.67
2023-03-03T21:15:01.266Z,37.33
2023-03-03T21:17:30.687Z,33.67
2023-03-03T21:20:19.218Z,31.67
2023-03-03T21:22:46.412Z,33.00
2023-03-03T21:25:41.986Z,28.67
2023-03-03T21:28:26.017Z,32.33
2023-03-03T21:31:17.138Z,40.33
2023-03-03T21:33:49.119Z,37.00
2023-03-03T21:36:35.899Z,32.00
2023-03-03T21:39:20.666Z,41.33
2023-03-03T21:41:55.557Z,35.00
2023-03-03T21:44:50.147Z,29.67
2023-03-03T21:47:20.164Z,35.00
2023-03-03T21:49:49.109Z,39.67
2023-03-03T21:52:17.988Z,47.00
2023-03-03T21:54:46.588Z,51.00
2023-03-03T21:57:14.207Z,40.00
2023-03-03T21:59:41.599Z,38.67
2023-03-03T22:02:09.375Z,39.67
2023-03-03T22:04:39.057Z,35.33
2023-03-03T22:07:06.015Z,30.33
2023-03-03T22:09:33.030Z,45.67
2023-03-03T22:11:59.974Z,36.67
2023-03-03T22:14:27.174Z,41.33
2023-03-03T22:16:54.182Z,39.00
2023-03-03T22:19:21.546Z,32.33
2023-03-03T22:21:49.911Z,36.00
2023-03-03T22:24:17.376Z,28.33
2023-03-03T22:26:44.328Z,32.33
2023-03-03T22:29:11.384Z,23.67
2023-03-03T22:31:38.336Z,29.67
2023-03-03T22:34:05.736Z,43.00
2023-03-03T22:36:32.866Z,36.00
2023-03-03T22:39:01.116Z,35.00
2023-03-03T22:41:28.113Z,43.00
2023-03-03T22:43:55.066Z,33.33
2023-03-03T22:46:22.004Z,45.67
2023-03-03T22:48:48.892Z,41.33
2023-03-03T22:51:15.876Z,42.00
2023-03-03T22:53:42.762Z,33.67
2023-03-03T22:56:09.770Z,44.67
2023-03-03T22:58:36.661Z,39.67
2023-03-03T23:01:05.025Z,40.00
2023-03-03T23:03:32.991Z,35.67
2023-03-03T23:06:00.039Z,31.00
2023-03-03T23:08:27.822Z,24.33
2023-03-03T23:10:54.802Z,33.67
2023-03-03T23:13:21.915Z,27.67
2023-03-03T23:15:48.884Z,29.33
2023-03-03T23:18:15.930Z,24.33
2023-03-03T23:20:46.173Z,24.33
2023-03-03T23:23:13.230Z,27.67
2023-03-03T23:25:40.301Z,20.33
2023-03-03T23:28:07.989Z,21.33
2023-03-03T23:30:34.939Z,21.33
2023-03-03T23:33:01.876Z,19.67
2023-03-03T23:35:28.911Z,33.00
2023-03-03T23:37:55.896Z,42.00
2023-03-03T23:40:23.024Z,30.33
2023-03-03T23:42:50.323Z,40.67
2023-03-03T23:45:17.584Z,41.00
2023-03-03T23:47:44.542Z,36.33
2023-03-03T23:50:12.840Z,32.00
2023-03-03T23:52:39.820Z,37.33
2023-03-03T23:55:07.461Z,36.33
2023-03-03T23:57:34.382Z,37.00
